Aviation Digital Data Service (ADDS)

Output produced by METARs form (1333 UTC 24 January 2021)
found at http://www.aviationweather.gov/metar/data/
 
Forecast for: VCBI (COLOMBO/KATUNAYA, LK)
Text: TAF VCBI 241100Z 2412/2518 03010KT 9999 FEW020 TX32/2508Z TN22/2500Z
Forecast period: 1200 UTC 24 January 2021 to 1800 UTC 25 January 2021
Forecast type: FROM: standard forecast or significant change
Winds: from the NNE (30 degrees) at 12 MPH (10 knots; 5.1 m/s)
Visibility: 6 or more miles (10+ km)
Ceiling: at least 12,000 feet AGL
Clouds: few clouds at 2000 feet AGL
Weather: no significant weather forecast for this period
Text: TEMPO 2500/2502 5000 BR
Forecast period: 0000 to 0200 UTC 25 January 2021
Forecast type: TEMPORARY: The following changes expected for less than half the time period
Visibility: 3 miles (5 km)
Ceiling: unknown
Clouds: missing
Weather: BR  (mist)